createdAt,value
2018-07-14T00:01:21.775Z,97270.86
2018-07-14T00:03:50.975Z,97267.25
2018-07-14T00:06:20.244Z,97271.73
2018-07-14T00:08:49.483Z,97269.48
2018-07-14T00:11:18.895Z,97261.00
2018-07-14T00:13:48.071Z,97259.36
2018-07-14T00:16:17.276Z,97263.80
2018-07-14T00:18:46.466Z,97260.91
2018-07-14T00:21:15.652Z,97265.16
2018-07-14T00:23:45.292Z,97263.27
2018-07-14T00:26:18.182Z,97262.12
2018-07-14T00:28:47.668Z,97271.43
2018-07-14T00:31:17.126Z,97272.24
2018-07-14T00:33:46.521Z,97273.92
2018-07-14T00:36:15.731Z,97273.40
2018-07-14T00:38:44.915Z,97269.03
2018-07-14T00:41:14.128Z,97272.57
2018-07-14T00:43:43.335Z,97269.86
2018-07-14T00:46:12.847Z,97269.59
2018-07-14T00:48:42.059Z,97265.31
2018-07-14T00:51:11.251Z,97271.81
2018-07-14T00:53:40.465Z,97271.15
2018-07-14T00:56:09.666Z,97273.30
2018-07-14T00:58:38.878Z,97275.06
2018-07-14T01:01:08.286Z,97274.16
2018-07-14T01:03:37.495Z,97275.64
2018-07-14T01:06:07.326Z,97270.99
2018-07-14T01:08:36.516Z,97277.24
2018-07-14T01:11:05.704Z,97274.78
2018-07-14T01:13:35.428Z,97277.20
2018-07-14T01:16:04.882Z,97277.02
2018-07-14T01:18:34.355Z,97274.63
2018-07-14T01:21:03.547Z,97268.88
2018-07-14T01:23:32.748Z,97266.92
2018-07-14T01:26:01.938Z,97259.36
2018-07-14T01:28:31.131Z,97261.76
2018-07-14T01:31:00.355Z,97262.64
2018-07-14T01:33:29.575Z,97260.20
2018-07-14T01:35:58.767Z,97258.59
2018-07-14T01:38:27.962Z,97258.03
2018-07-14T01:40:57.691Z,97253.27
2018-07-14T01:43:26.891Z,97259.73
2018-07-14T01:45:56.062Z,97254.63
2018-07-14T01:48:25.256Z,97245.73
2018-07-14T01:50:54.437Z,97254.41
2018-07-14T01:53:23.911Z,97250.66
2018-07-14T01:55:53.322Z,97250.39
2018-07-14T01:58:22.852Z,97243.39
2018-07-14T02:00:52.049Z,97245.84
2018-07-14T02:03:21.382Z,97253.47
2018-07-14T02:05:50.824Z,97245.19
2018-07-14T02:08:20.031Z,97249.02
2018-07-14T02:10:49.224Z,97254.39
2018-07-14T02:13:18.435Z,97246.27
2018-07-14T02:15:47.748Z,97245.77
2018-07-14T02:18:16.938Z,97246.86
2018-07-14T02:20:46.403Z,97251.19
2018-07-14T02:23:15.883Z,97251.52
2018-07-14T02:25:45.515Z,97250.47
2018-07-14T02:28:14.939Z,97257.28
2018-07-14T02:30:44.341Z,97253.22
2018-07-14T02:33:13.687Z,97258.59
2018-07-14T02:35:42.945Z,97259.90
2018-07-14T02:38:12.131Z,97258.63
2018-07-14T02:40:41.318Z,97260.34
2018-07-14T02:43:10.508Z,97259.76
2018-07-14T02:45:39.940Z,97259.06
2018-07-14T02:48:09.141Z,97262.86
2018-07-14T02:50:38.384Z,97255.82
2018-07-14T02:53:07.741Z,97257.44
2018-07-14T02:55:36.947Z,97260.88
2018-07-14T02:58:06.402Z,97259.25
2018-07-14T03:00:35.948Z,97257.13
2018-07-14T03:03:05.260Z,97255.46
2018-07-14T03:05:34.447Z,97256.05
2018-07-14T03:08:03.929Z,97255.82
2018-07-14T03:10:33.407Z,97252.34
2018-07-14T03:13:02.609Z,97260.52
2018-07-14T03:15:31.803Z,97255.70
2018-07-14T03:18:01.024Z,97256.27
2018-07-14T03:20:30.242Z,97251.77
2018-07-14T03:22:59.752Z,97251.52
2018-07-14T03:25:28.939Z,97250.73
2018-07-14T03:27:58.439Z,97248.90
2018-07-14T03:30:27.927Z,97257.03
2018-07-14T03:32:57.123Z,97262.44
2018-07-14T03:35:26.307Z,97256.78
2018-07-14T03:37:56.020Z,97264.11
2018-07-14T03:40:25.199Z,97270.90
2018-07-14T03:42:54.440Z,97268.22
2018-07-14T03:45:23.743Z,97268.23
2018-07-14T03:47:52.939Z,97264.47
2018-07-14T03:50:22.108Z,97265.55
2018-07-14T03:52:51.356Z,97259.34
2018-07-14T03:55:20.523Z,97265.82
2018-07-14T03:57:49.835Z,97261.75
2018-07-14T04:00:19.021Z,97268.00
2018-07-14T04:02:48.466Z,97258.54
2018-07-14T04:05:17.658Z,97267.97
2018-07-14T04:07:46.859Z,97266.34
2018-07-14T04:10:16.063Z,97271.74
2018-07-14T04:12:45.255Z,97268.23
2018-07-14T04:15:14.479Z,97266.88
2018-07-14T04:17:43.799Z,97267.91
2018-07-14T04:20:12.989Z,97266.01
2018-07-14T04:22:42.454Z,97271.15
2018-07-14T04:25:12.337Z,97276.25
2018-07-14T04:27:41.586Z,97272.98
2018-07-14T04:30:10.791Z,97269.95
2018-07-14T04:32:39.979Z,97278.61
2018-07-14T04:35:09.193Z,97276.73
2018-07-14T04:37:38.375Z,97275.12
2018-07-14T04:40:07.707Z,97278.31
2018-07-14T04:42:36.968Z,97282.10
2018-07-14T04:45:06.511Z,97283.10
2018-07-14T04:47:35.705Z,97280.40
2018-07-14T04:50:06.056Z,97283.86
2018-07-14T04:52:35.947Z,97275.41
2018-07-14T04:55:05.787Z,97277.50
2018-07-14T04:57:35.407Z,97271.01
2018-07-14T05:00:04.712Z,97276.30
2018-07-14T05:02:34.018Z,97275.96
2018-07-14T05:05:03.242Z,97279.28
2018-07-14T05:07:32.500Z,97282.73
2018-07-14T05:10:01.708Z,97279.98
2018-07-14T05:12:30.892Z,97278.45
2018-07-14T05:15:00.122Z,97282.67
2018-07-14T05:17:29.324Z,97279.97
2018-07-14T05:19:58.510Z,97279.36
2018-07-14T05:22:27.908Z,97283.73
2018-07-14T05:24:57.128Z,97284.56
2018-07-14T05:27:26.771Z,97290.53
2018-07-14T05:29:56.004Z,97286.46
2018-07-14T05:32:25.207Z,97284.58
2018-07-14T05:34:54.424Z,97283.88
2018-07-14T05:37:23.599Z,97288.75
2018-07-14T05:39:52.879Z,97288.84
2018-07-14T05:42:22.078Z,97288.77
2018-07-14T05:44:51.283Z,97285.80
2018-07-14T05:47:20.494Z,97290.30
2018-07-14T05:49:50.007Z,97290.69
2018-07-14T05:52:19.212Z,97284.73
2018-07-14T05:54:48.814Z,97285.31
2018-07-14T05:57:18.007Z,97288.60
2018-07-14T05:59:47.234Z,97286.16
2018-07-14T06:02:16.411Z,97292.77
2018-07-14T06:04:45.727Z,97298.78
2018-07-14T06:07:14.897Z,97301.39
2018-07-14T06:09:44.079Z,97294.95
2018-07-14T06:12:13.528Z,97300.55
2018-07-14T06:14:42.748Z,97296.21
2018-07-14T06:17:11.963Z,97294.41
2018-07-14T06:19:41.418Z,97292.33
2018-07-14T06:22:10.792Z,97295.91
2018-07-14T06:24:39.985Z,97300.73
2018-07-14T06:27:09.475Z,97300.74
2018-07-14T06:29:38.667Z,97307.77
2018-07-14T06:32:07.912Z,97306.88
2018-07-14T06:34:37.043Z,97306.41
2018-07-14T06:37:06.251Z,97309.78
2018-07-14T06:39:35.434Z,97305.59
2018-07-14T06:42:04.647Z,97303.73
2018-07-14T06:44:33.842Z,97300.51
2018-07-14T06:47:03.011Z,97304.69
2018-07-14T06:49:32.203Z,97307.45
2018-07-14T06:52:01.487Z,97305.86
2018-07-14T06:54:31.074Z,97295.94
2018-07-14T06:57:00.301Z,97293.58
2018-07-14T06:59:29.531Z,97299.97
2018-07-14T07:01:58.731Z,97291.34
2018-07-14T07:04:28.028Z,97302.89
2018-07-14T07:06:57.232Z,97297.27
2018-07-14T07:09:26.497Z,97296.86
2018-07-14T07:11:55.723Z,97298.19
2018-07-14T07:14:24.911Z,97293.75
2018-07-14T07:16:54.107Z,97295.24
2018-07-14T07:19:23.299Z,97298.20
2018-07-14T07:21:52.484Z,97294.73
2018-07-14T07:24:21.678Z,97299.23
2018-07-14T07:26:51.223Z,97297.57
2018-07-14T07:29:20.419Z,97302.13
2018-07-14T07:31:49.596Z,97299.42
2018-07-14T07:34:19.488Z,97301.55
2018-07-14T07:36:48.659Z,97305.78
2018-07-14T07:39:17.870Z,97308.03
2018-07-14T07:41:47.062Z,97314.48
2018-07-14T07:44:16.516Z,97310.08
2018-07-14T07:46:48.426Z,97303.17
2018-07-14T07:49:17.620Z,97316.13
2018-07-14T07:51:46.818Z,97317.21
2018-07-14T07:54:16.004Z,97317.23
2018-07-14T07:56:45.196Z,97318.81
2018-07-14T07:59:14.362Z,97311.90
2018-07-14T08:01:43.582Z,97316.48
2018-07-14T08:04:12.751Z,97310.09
2018-07-14T08:06:41.971Z,97319.91
2018-07-14T08:09:11.683Z,97313.19
2018-07-14T08:11:40.895Z,97305.60
2018-07-14T08:14:10.406Z,97300.68
2018-07-14T08:16:39.620Z,97302.84
2018-07-14T08:19:08.830Z,97300.18
2018-07-14T08:21:38.175Z,97293.52
2018-07-14T08:24:07.416Z,97294.23
2018-07-14T08:26:36.614Z,97301.94
2018-07-14T08:29:05.827Z,97291.44
2018-07-14T08:31:35.044Z,97293.88
2018-07-14T08:34:04.567Z,97295.14
2018-07-14T08:36:33.775Z,97297.55
2018-07-14T08:39:04.649Z,97298.55
2018-07-14T08:41:34.088Z,97291.67
2018-07-14T08:44:03.344Z,97293.27
2018-07-14T08:46:34.683Z,97289.66
2018-07-14T08:49:08.474Z,97289.98
2018-07-14T08:51:39.049Z,97285.13
2018-07-14T08:54:13.127Z,97283.27
2018-07-14T08:56:43.991Z,97282.85
2018-07-14T08:59:15.093Z,97283.59
2018-07-14T09:01:47.101Z,97287.03
2018-07-14T09:04:17.458Z,97279.27
2018-07-14T09:06:48.505Z,97279.66
2018-07-14T09:09:18.736Z,97279.69
2018-07-14T09:11:49.414Z,97271.69
2018-07-14T09:14:20.372Z,97276.44
2018-07-14T09:16:49.844Z,97275.17
2018-07-14T09:19:19.049Z,97271.52
2018-07-14T09:21:48.264Z,97281.08
2018-07-14T09:24:17.855Z,97272.45
2018-07-14T09:26:47.054Z,97281.67
2018-07-14T09:29:16.271Z,97272.97
2018-07-14T09:31:45.827Z,97275.84
2018-07-14T09:34:14.999Z,97270.47
2018-07-14T09:36:44.227Z,97270.64
2018-07-14T09:39:13.400Z,97271.47
2018-07-14T09:41:42.595Z,97268.38
2018-07-14T09:44:11.773Z,97274.01
2018-07-14T09:46:41.874Z,97268.81
2018-07-14T09:49:11.071Z,97270.65
2018-07-14T09:51:40.443Z,97266.88
2018-07-14T09:54:09.613Z,97269.77
2018-07-14T09:56:38.829Z,97262.47
2018-07-14T09:59:08.127Z,97259.77
2018-07-14T10:01:37.351Z,97260.86
2018-07-14T10:04:06.565Z,97255.59
2018-07-14T10:06:35.779Z,97246.87
2018-07-14T10:09:06.144Z,97247.64
2018-07-14T10:11:35.493Z,97240.39
2018-07-14T10:14:04.698Z,97241.00
2018-07-14T10:16:33.891Z,97237.64
2018-07-14T10:19:03.112Z,97241.06
2018-07-14T10:21:32.316Z,97235.59
2018-07-14T10:24:01.595Z,97235.27
2018-07-14T10:26:31.808Z,97244.16
2018-07-14T10:29:01.099Z,97240.24
2018-07-14T10:31:30.331Z,97239.74
2018-07-14T10:33:59.579Z,97228.59
2018-07-14T10:36:28.708Z,97234.84
2018-07-14T10:38:58.247Z,97233.65
2018-07-14T10:41:27.448Z,97220.80
2018-07-14T10:43:58.722Z,97217.13
2018-07-14T10:46:28.278Z,97220.63
2018-07-14T10:48:57.476Z,97213.02
2018-07-14T10:51:26.682Z,97211.50
2018-07-14T10:53:56.145Z,97208.37
2018-07-14T10:56:25.431Z,97204.19
2018-07-14T10:58:54.623Z,97203.19
2018-07-14T11:01:23.835Z,97202.17
2018-07-14T11:03:53.008Z,97196.40
2018-07-14T11:06:22.409Z,97199.55
2018-07-14T11:08:51.580Z,97197.89
2018-07-14T11:11:20.940Z,97191.53
2018-07-14T11:13:50.274Z,97186.47
2018-07-14T11:16:19.492Z,97187.09
2018-07-14T11:18:49.407Z,97182.78
2018-07-14T11:21:18.908Z,97185.33
2018-07-14T11:23:48.175Z,97181.11
2018-07-14T11:26:17.297Z,97176.38
2018-07-14T11:28:46.705Z,97172.44
2018-07-14T11:31:15.969Z,97168.33
2018-07-14T11:33:45.879Z,97171.56
2018-07-14T11:36:15.191Z,97169.98
2018-07-14T11:38:44.396Z,97165.41
2018-07-14T11:41:13.586Z,97162.62
2018-07-14T11:43:42.777Z,97168.72
2018-07-14T11:46:11.975Z,97161.49
2018-07-14T11:48:41.299Z,97158.31
2018-07-14T11:51:10.505Z,97162.16
2018-07-14T11:53:40.092Z,97154.04
2018-07-14T11:56:09.303Z,97156.91
2018-07-14T11:58:38.511Z,97155.80
2018-07-14T12:01:07.876Z,97151.25
2018-07-14T12:03:37.364Z,97150.31
2018-07-14T12:06:06.545Z,97150.13
2018-07-14T12:08:35.735Z,97153.48
2018-07-14T12:11:06.256Z,97150.00
2018-07-14T12:13:35.451Z,97148.79
2018-07-14T12:16:04.963Z,97155.75
2018-07-14T12:18:34.482Z,97142.61
2018-07-14T12:21:04.052Z,97147.03
2018-07-14T12:23:33.907Z,97143.44
2018-07-14T12:26:03.117Z,97140.13
2018-07-14T12:28:32.354Z,97136.08
2018-07-14T12:31:01.991Z,97128.34
2018-07-14T12:33:31.564Z,97127.70
2018-07-14T12:36:00.847Z,97122.93
2018-07-14T12:38:30.091Z,97119.90
2018-07-14T12:40:59.984Z,97110.27
2018-07-14T12:43:29.568Z,97110.59
2018-07-14T12:45:59.055Z,97105.77
2018-07-14T12:48:28.632Z,97112.14
2018-07-14T12:50:58.080Z,97111.98
2018-07-14T12:53:27.437Z,97105.20
2018-07-14T12:55:56.624Z,97101.31
2018-07-14T12:58:25.822Z,97102.73
2018-07-14T13:00:55.028Z,97095.67
2018-07-14T13:03:24.260Z,97097.21
2018-07-14T13:05:53.471Z,97097.34
2018-07-14T13:08:22.670Z,97090.42
2018-07-14T13:10:51.844Z,97090.72
2018-07-14T13:13:21.266Z,97086.11
2018-07-14T13:15:50.453Z,97088.10
2018-07-14T13:18:19.659Z,97084.66
2018-07-14T13:20:48.863Z,97081.73
2018-07-14T13:23:18.086Z,97078.75
2018-07-14T13:25:47.802Z,97077.94
2018-07-14T13:28:16.998Z,97077.19
2018-07-14T13:30:46.568Z,97079.29
2018-07-14T13:33:15.770Z,97077.03
2018-07-14T13:35:44.956Z,97075.66
2018-07-14T13:38:14.171Z,97069.38
2018-07-14T13:40:43.535Z,97068.39
2018-07-14T13:43:12.846Z,97065.64
2018-07-14T13:45:42.971Z,97067.19
2018-07-14T13:48:12.203Z,97070.66
2018-07-14T13:50:41.743Z,97068.06
2018-07-14T13:53:10.955Z,97066.36
2018-07-14T13:55:40.186Z,97061.53
2018-07-14T13:58:09.399Z,97057.33
2018-07-14T14:00:38.579Z,97061.71
2018-07-14T14:03:07.842Z,97046.73
2018-07-14T14:05:37.039Z,97049.39
2018-07-14T14:08:06.628Z,97060.03
2018-07-14T14:10:36.441Z,97058.87
2018-07-14T14:13:05.959Z,97054.19
2018-07-14T14:15:35.172Z,97048.26
2018-07-14T14:18:04.787Z,97055.33
2018-07-14T14:20:34.195Z,97042.12
2018-07-14T14:23:03.708Z,97047.75
2018-07-14T14:25:32.883Z,97054.02
2018-07-14T14:28:02.119Z,97052.06
2018-07-14T14:30:31.296Z,97047.53
2018-07-14T14:33:00.628Z,97043.16
2018-07-14T14:35:29.918Z,97049.50
2018-07-14T14:37:59.151Z,97034.93
2018-07-14T14:40:28.619Z,97043.41
2018-07-14T14:42:57.964Z,97038.04
2018-07-14T14:45:28.312Z,97038.66
2018-07-14T14:47:57.539Z,97028.27
2018-07-14T14:50:26.751Z,97029.87
2018-07-14T14:52:55.930Z,97029.86
2018-07-14T14:55:25.119Z,97026.09
2018-07-14T14:57:54.547Z,97028.67
2018-07-14T15:00:23.738Z,97026.78
2018-07-14T15:02:53.159Z,97026.32
2018-07-14T15:05:22.987Z,97026.87
2018-07-14T15:07:52.791Z,97028.30
2018-07-14T15:10:22.400Z,97019.22
2018-07-14T15:12:51.620Z,97021.14
2018-07-14T15:15:20.815Z,97022.94
2018-07-14T15:17:50.011Z,97019.93
2018-07-14T15:20:19.203Z,97019.12
2018-07-14T15:22:48.662Z,97012.70
2018-07-14T15:25:17.879Z,97020.59
2018-07-14T15:27:47.095Z,97019.22
2018-07-14T15:30:16.319Z,97021.42
2018-07-14T15:32:45.542Z,97027.09
2018-07-14T15:35:14.707Z,97031.15
2018-07-14T15:37:44.023Z,97024.44
2018-07-14T15:40:13.347Z,97029.00
2018-07-14T15:42:43.074Z,97023.05
2018-07-14T15:45:12.603Z,97027.64
2018-07-14T15:47:41.763Z,97028.77
2018-07-14T15:50:11.016Z,97028.46
2018-07-14T15:52:40.911Z,97032.97
2018-07-14T15:55:10.227Z,97033.28
2018-07-14T15:57:39.610Z,97026.88
2018-07-14T16:00:09.027Z,97025.10
2018-07-14T16:02:38.190Z,97030.63
2018-07-14T16:05:08.551Z,97033.80
2018-07-14T16:07:41.104Z,97041.64
2018-07-14T16:10:11.982Z,97036.17
2018-07-14T16:12:42.375Z,97038.92
2018-07-14T16:15:13.066Z,97048.80
2018-07-14T16:17:45.490Z,97052.91
2018-07-14T16:20:16.195Z,97084.75
2018-07-14T16:22:45.402Z,97080.84
2018-07-14T16:25:14.610Z,97070.05
2018-07-14T16:27:43.795Z,97059.27
2018-07-14T16:30:13.379Z,97057.13
2018-07-14T16:32:42.571Z,97054.39
2018-07-14T16:35:13.073Z,97054.88
2018-07-14T16:37:42.622Z,97040.49
2018-07-14T16:40:11.857Z,97045.55
2018-07-14T16:42:41.047Z,97036.97
2018-07-14T16:45:10.264Z,97038.08
2018-07-14T16:47:39.418Z,97030.66
2018-07-14T16:50:08.735Z,97028.45
2018-07-14T16:52:37.860Z,97034.47
2018-07-14T16:55:07.188Z,97023.77
2018-07-14T16:57:36.479Z,97019.23
2018-07-14T17:00:05.696Z,97026.16
2018-07-14T17:02:35.424Z,97016.08
2018-07-14T17:05:04.689Z,97017.97
2018-07-14T17:07:33.853Z,97015.69
2018-07-14T17:10:03.038Z,97013.59
2018-07-14T17:12:32.199Z,97011.53
2018-07-14T17:15:01.804Z,97015.92
2018-07-14T17:17:30.951Z,97012.59
2018-07-14T17:20:00.141Z,97006.70
2018-07-14T17:22:30.531Z,97005.11
2018-07-14T17:25:00.461Z,97005.94
2018-07-14T17:27:30.035Z,97005.81
2018-07-14T17:29:59.203Z,97005.17
2018-07-14T17:32:28.400Z,97010.55
2018-07-14T17:34:57.695Z,97008.08
2018-07-14T17:37:26.871Z,97010.90
2018-07-14T17:39:56.097Z,97010.43
2018-07-14T17:42:25.298Z,97014.62
2018-07-14T17:44:54.516Z,97009.59
2018-07-14T17:47:23.687Z,97011.33
2018-07-14T17:49:54.967Z,97013.18
2018-07-14T17:52:25.944Z,97007.38
2018-07-14T17:54:56.213Z,97010.58
2018-07-14T17:57:26.043Z,97019.66
2018-07-14T17:59:55.481Z,97027.64
2018-07-14T18:02:27.087Z,97018.58
2018-07-14T18:04:57.564Z,97013.45
2018-07-14T18:07:27.927Z,97014.86
2018-07-14T18:09:58.643Z,97013.91
2018-07-14T18:12:28.967Z,97021.11
2018-07-14T18:14:59.086Z,97018.81
2018-07-14T18:17:31.693Z,97015.16
2018-07-14T18:20:01.871Z,97009.48
2018-07-14T18:22:32.140Z,97012.71
2018-07-14T18:25:01.895Z,97019.48
2018-07-14T18:27:32.091Z,97014.32
2018-07-14T18:30:02.535Z,97015.45
2018-07-14T18:32:31.696Z,97013.84
2018-07-14T18:35:00.887Z,97018.30
2018-07-14T18:37:30.048Z,97013.92
2018-07-14T18:39:59.874Z,97019.28
2018-07-14T18:42:29.131Z,97021.80
2018-07-14T18:44:58.335Z,97027.17
2018-07-14T18:47:29.075Z,97024.30
2018-07-14T18:49:59.084Z,97027.70
2018-07-14T18:52:29.403Z,97023.50
2018-07-14T18:54:59.530Z,97031.08
2018-07-14T18:57:29.253Z,97032.53
2018-07-14T18:59:59.950Z,97030.59
2018-07-14T19:02:29.896Z,97031.61
2018-07-14T19:05:00.198Z,97032.18
2018-07-14T19:07:31.731Z,97033.12
2018-07-14T19:10:01.570Z,97033.11
2018-07-14T19:12:31.658Z,97028.13
2018-07-14T19:15:01.542Z,97035.80
2018-07-14T19:17:31.535Z,97043.97
2018-07-14T19:20:00.724Z,97047.36
2018-07-14T19:22:31.394Z,97046.41
2018-07-14T19:25:02.288Z,97048.11
2018-07-14T19:27:31.571Z,97047.05
2018-07-14T19:30:00.747Z,97049.94
2018-07-14T19:32:30.011Z,97056.20
2018-07-14T19:34:59.285Z,97055.41
2018-07-14T19:37:28.411Z,97059.31
2018-07-14T19:39:57.604Z,97057.14
2018-07-14T19:42:27.778Z,97061.44
2018-07-14T19:44:58.486Z,97061.09
2018-07-14T19:47:29.319Z,97069.78
2018-07-14T19:49:59.795Z,97063.97
2018-07-14T19:52:30.425Z,97063.71
2018-07-14T19:55:01.199Z,97069.72
2018-07-14T19:57:32.022Z,97066.64
2018-07-14T20:00:02.708Z,97066.86
2018-07-14T20:02:33.645Z,97074.55
2018-07-14T20:05:05.446Z,97070.80
2018-07-14T20:07:35.504Z,97077.76
2018-07-14T20:10:05.396Z,97078.44
2018-07-14T20:12:35.003Z,97078.27
2018-07-14T20:15:05.928Z,97083.33
2018-07-14T20:17:35.215Z,97083.88
2018-07-14T20:20:04.508Z,97080.91
2018-07-14T20:22:33.676Z,97089.00
2018-07-14T20:25:02.985Z,97088.69
2018-07-14T20:27:32.252Z,97085.78
2018-07-14T20:30:01.478Z,97093.32
2018-07-14T20:32:32.797Z,97089.47
2018-07-14T20:35:03.901Z,97083.23
2018-07-14T20:37:33.999Z,97089.08
2018-07-14T20:40:05.323Z,97092.80
2018-07-14T20:42:35.767Z,97088.79
2018-07-14T20:45:06.947Z,97088.50
2018-07-14T20:47:37.444Z,97090.81
2018-07-14T20:50:08.029Z,97097.57
2018-07-14T20:52:37.319Z,97088.83
2018-07-14T20:55:06.847Z,97089.34
2018-07-14T20:57:36.029Z,97097.93
2018-07-14T21:00:05.313Z,97096.40
2018-07-14T21:02:34.479Z,97089.61
2018-07-14T21:05:03.792Z,97091.29
2018-07-14T21:07:32.975Z,97097.15
2018-07-14T21:10:02.248Z,97096.08
2018-07-14T21:12:31.822Z,97091.00
2018-07-14T21:15:02.401Z,97100.51
2018-07-14T21:17:32.706Z,97098.22
2018-07-14T21:20:03.159Z,97095.33
2018-07-14T21:22:34.453Z,97098.95
2018-07-14T21:25:04.973Z,97091.36
2018-07-14T21:27:35.990Z,97103.56
2018-07-14T21:30:06.557Z,97110.23
2018-07-14T21:32:36.764Z,97106.63
2018-07-14T21:35:08.254Z,97107.98
2018-07-14T21:37:38.892Z,97104.52
2018-07-14T21:40:10.094Z,97107.05
2018-07-14T21:42:41.165Z,97105.33
2018-07-14T21:45:12.039Z,97107.05
2018-07-14T21:47:43.102Z,97112.66
2018-07-14T21:50:14.486Z,97107.17
2018-07-14T21:52:46.578Z,97106.63
2018-07-14T21:55:17.985Z,97108.44
2018-07-14T21:57:47.522Z,97101.08
2018-07-14T22:00:32.805Z,97102.72
2018-07-14T22:03:04.095Z,97101.10
2018-07-14T22:05:33.394Z,97102.55
2018-07-14T22:08:04.471Z,97104.59
2018-07-14T22:10:34.850Z,97106.13
2018-07-14T22:13:04.943Z,97104.06
2018-07-14T22:15:35.481Z,97111.19
2018-07-14T22:18:06.316Z,97105.21
2018-07-14T22:20:37.545Z,97108.81
2018-07-14T22:23:08.922Z,97099.97
2018-07-14T22:25:40.250Z,97106.07
2018-07-14T22:28:10.702Z,97107.69
2018-07-14T22:30:41.642Z,97110.02
2018-07-14T22:33:12.131Z,97116.27
2018-07-14T22:35:43.391Z,97111.19
2018-07-14T22:38:13.778Z,97105.28
2018-07-14T22:40:46.054Z,97110.30
2018-07-14T22:43:16.551Z,97107.26
2018-07-14T22:45:48.045Z,97109.20
2018-07-14T22:48:18.608Z,97111.16
2018-07-14T22:50:48.023Z,97108.39
2018-07-14T22:53:17.224Z,97109.88
2018-07-14T22:55:46.499Z,97108.66
2018-07-14T22:58:15.706Z,97108.33
2018-07-14T23:00:44.895Z,97108.98
2018-07-14T23:03:14.571Z,97110.77
2018-07-14T23:05:43.728Z,97106.27
2018-07-14T23:08:12.947Z,97104.33
2018-07-14T23:10:42.120Z,97098.20
2018-07-14T23:13:11.311Z,97096.33
2018-07-14T23:15:40.490Z,97098.89
2018-07-14T23:18:09.675Z,97097.48
2018-07-14T23:20:38.880Z,97094.41
2018-07-14T23:23:08.067Z,97096.53
2018-07-14T23:25:37.244Z,97099.86
2018-07-14T23:28:06.683Z,97093.07
2018-07-14T23:30:36.366Z,97096.67
2018-07-14T23:33:05.549Z,97097.55
2018-07-14T23:35:34.721Z,97092.25
2018-07-14T23:38:03.951Z,97092.85
2018-07-14T23:40:33.124Z,97091.30
2018-07-14T23:43:02.296Z,97084.55
2018-07-14T23:45:31.492Z,97086.64
2018-07-14T23:48:00.683Z,97096.84
2018-07-14T23:50:29.843Z,97092.24
2018-07-14T23:52:59.033Z,97087.91
2018-07-14T23:55:28.211Z,97086.94
2018-07-14T23:57:57.427Z,97079.95
